createdAt,value
2023-03-06T00:01:52.078Z,12.10
2023-03-06T07:02:20.650Z,8.30
2023-03-06T07:05:03.028Z,7.60
2023-03-06T07:07:39.749Z,9.00
2023-03-06T07:10:16.126Z,7.60
2023-03-06T07:12:49.777Z,7.10
2023-03-06T07:15:30.878Z,7.20
2023-03-06T07:18:01.954Z,28.40
2023-03-06T07:20:47.868Z,12.40
2023-03-06T07:23:19.341Z,6.60
2023-03-06T07:25:47.833Z,5.10
2023-03-06T07:28:51.315Z,6.90
2023-03-06T07:31:40.803Z,6.10
2023-03-06T07:34:13.441Z,6.70
2023-03-06T07:36:47.975Z,7.20
2023-03-06T07:39:32.074Z,7.10
2023-03-06T07:42:07.541Z,7.20
2023-03-06T07:44:39.563Z,7.90
2023-03-06T07:47:16.916Z,6.10
2023-03-06T07:49:49.022Z,6.70
2023-03-06T07:52:22.026Z,7.40
2023-03-06T07:55:05.356Z,8.20
2023-03-06T07:58:09.755Z,6.10
2023-03-06T08:00:51.214Z,5.00
2023-03-06T08:03:24.477Z,6.10
2023-03-06T08:06:13.837Z,6.50
2023-03-06T08:09:20.229Z,6.50
2023-03-06T08:12:09.476Z,6.60
2023-03-06T08:14:53.102Z,5.90
2023-03-06T08:17:41.878Z,8.60
2023-03-06T08:20:22.208Z,6.10
2023-03-06T08:23:01.812Z,8.50
2023-03-06T08:25:59.045Z,5.80
2023-03-06T08:29:48.393Z,7.70
2023-03-06T08:32:24.651Z,5.70
2023-03-06T08:35:20.564Z,6.00
2023-03-06T08:38:32.040Z,5.20
2023-03-06T08:42:04.281Z,5.40
2023-03-06T08:45:15.471Z,5.50
2023-03-06T08:48:21.882Z,6.40
2023-03-06T08:51:32.183Z,5.30
2023-03-06T09:05:56.311Z,5.30
2023-03-06T09:08:36.658Z,6.20
2023-03-06T09:11:46.634Z,5.80
2023-03-06T09:14:37.924Z,5.10
2023-03-06T09:17:57.709Z,4.20
2023-03-06T09:20:35.598Z,4.50
2023-03-06T09:24:04.602Z,4.90
2023-03-06T09:27:23.265Z,4.90
2023-03-06T09:30:06.645Z,5.60
2023-03-06T09:33:34.788Z,5.00
2023-03-06T09:36:30.346Z,4.80
2023-03-06T09:39:24.173Z,4.50
2023-03-06T09:42:41.017Z,3.50
2023-03-06T09:46:23.201Z,4.00
2023-03-06T09:49:57.749Z,3.40
2023-03-06T09:53:38.480Z,4.40
2023-03-06T09:56:20.179Z,5.60
2023-03-06T10:12:56.471Z,4.40
2023-03-06T10:18:43.379Z,5.40
2023-03-06T10:22:28.330Z,4.70
2023-03-06T10:26:29.398Z,4.50
2023-03-06T10:30:02.751Z,5.60
2023-03-06T11:07:11.520Z,6.30
2023-03-06T11:14:20.362Z,4.30
2023-03-06T11:17:59.777Z,4.60
2023-03-06T11:21:21.580Z,7.90
2023-03-06T11:24:44.190Z,4.60
2023-03-06T11:27:57.378Z,5.00
2023-03-06T11:54:02.975Z,3.00
2023-03-06T11:57:28.128Z,2.90
2023-03-06T12:00:45.669Z,3.40
2023-03-06T12:03:50.191Z,4.60
2023-03-06T12:07:22.471Z,3.90
2023-03-06T12:10:51.821Z,2.20
2023-03-06T12:14:30.400Z,2.40
2023-03-06T12:18:00.947Z,2.30
2023-03-06T12:21:55.766Z,2.60
2023-03-06T12:24:52.872Z,3.10
2023-03-06T12:28:15.372Z,3.50
2023-03-06T12:31:41.331Z,2.90
2023-03-06T12:35:04.087Z,3.10
2023-03-06T12:38:55.088Z,2.50
2023-03-06T12:41:48.205Z,3.80
2023-03-06T12:45:20.797Z,4.70
2023-03-06T12:49:31.453Z,4.80
2023-03-06T12:53:03.436Z,4.20
2023-03-06T12:55:55.865Z,2.80
2023-03-06T12:58:30.229Z,6.00
2023-03-06T13:01:20.126Z,4.60
2023-03-06T13:04:56.451Z,4.50
2023-03-06T13:08:22.712Z,4.10
2023-03-06T14:04:59.166Z,4.60
2023-03-06T14:08:22.883Z,4.00
2023-03-06T14:11:41.707Z,4.10
2023-03-06T14:14:20.659Z,5.10
2023-03-06T14:17:38.908Z,6.80
2023-03-06T14:20:40.183Z,4.70
2023-03-06T14:24:01.664Z,5.30
2023-03-06T14:26:40.334Z,6.20
2023-03-06T14:29:24.069Z,4.90
2023-03-06T14:32:14.542Z,3.80
2023-03-06T14:34:47.329Z,4.00
2023-03-06T14:37:35.154Z,5.00
2023-03-06T14:40:56.184Z,6.70
2023-03-06T14:43:50.543Z,6.60
2023-03-06T14:46:42.929Z,7.90
2023-03-06T14:49:34.039Z,6.90
2023-03-06T14:52:25.681Z,9.10
2023-03-06T14:55:42.453Z,4.80
2023-03-06T14:59:17.878Z,4.60
2023-03-06T15:01:57.159Z,7.00
2023-03-06T15:05:25.090Z,6.00
2023-03-06T15:09:14.080Z,5.90
2023-03-06T15:13:01.840Z,6.50
2023-03-06T15:16:42.718Z,8.40
2023-03-06T15:19:26.822Z,6.60
2023-03-06T15:22:50.856Z,7.60
2023-03-06T15:26:02.177Z,9.50
2023-03-06T15:29:09.326Z,8.50
2023-03-06T16:12:39.572Z,13.30
2023-03-06T16:15:22.667Z,13.20
2023-03-06T16:18:35.112Z,13.30
2023-03-06T16:21:39.039Z,13.40
2023-03-06T16:24:38.405Z,13.20
2023-03-06T16:28:32.438Z,10.90
2023-03-06T16:32:04.796Z,13.10
2023-03-06T16:35:30.822Z,16.00
2023-03-06T16:38:04.918Z,20.80
2023-03-06T16:41:10.229Z,27.20
2023-03-06T16:44:15.791Z,18.70
2023-03-06T16:47:07.529Z,15.20
2023-03-06T16:50:22.340Z,15.10
2023-03-06T16:53:44.289Z,14.10
2023-03-06T16:57:11.160Z,13.40
2023-03-06T17:00:43.136Z,14.60
2023-03-06T17:04:21.065Z,13.60
2023-03-06T17:06:53.341Z,12.40
2023-03-06T17:09:57.652Z,15.50
2023-03-06T17:13:13.204Z,12.60
2023-03-06T17:16:51.681Z,13.40
2023-03-06T17:20:41.948Z,35.70
2023-03-06T17:23:52.692Z,12.50
2023-03-06T17:27:41.695Z,13.90
2023-03-06T17:30:51.125Z,20.40
2023-03-06T17:37:59.569Z,17.30
2023-03-06T18:19:48.515Z,23.10
2023-03-06T18:22:30.418Z,23.60
2023-03-06T18:25:52.783Z,22.20
2023-03-06T18:29:04.632Z,21.10
2023-03-06T18:31:50.055Z,15.00
2023-03-06T18:34:55.104Z,14.70
2023-03-06T18:37:26.013Z,18.60
2023-03-06T18:40:17.148Z,25.00
2023-03-06T18:42:48.109Z,17.50
2023-03-06T18:45:59.458Z,21.60
2023-03-06T18:49:24.718Z,17.40
2023-03-06T18:52:57.324Z,15.30
2023-03-06T18:56:29.789Z,15.40
2023-03-06T18:59:51.380Z,14.20
2023-03-06T19:03:40.641Z,12.90
2023-03-06T19:07:28.836Z,13.30
2023-03-06T19:11:02.599Z,13.40
2023-03-06T19:45:54.072Z,13.90
2023-03-06T19:48:43.700Z,13.50
2023-03-06T19:52:06.728Z,11.10
2023-03-06T19:55:13.763Z,13.00
2023-03-06T19:58:54.798Z,14.80
2023-03-06T20:02:43.767Z,13.90
2023-03-06T20:06:13.018Z,13.20
2023-03-06T20:09:47.850Z,12.80
2023-03-06T20:13:21.365Z,12.20
2023-03-06T20:17:09.693Z,12.80
2023-03-06T20:20:59.496Z,12.70
2023-03-06T20:24:17.971Z,11.70
2023-03-06T20:39:14.695Z,12.60
2023-03-06T20:42:44.997Z,12.00
2023-03-06T20:48:15.440Z,12.60
2023-03-06T20:51:39.328Z,13.40
2023-03-06T20:54:30.717Z,16.00
2023-03-06T20:57:53.618Z,12.50
2023-03-06T21:00:49.287Z,11.70
2023-03-06T21:03:52.607Z,13.00
2023-03-06T21:06:47.682Z,12.70
2023-03-06T21:09:58.503Z,12.60
2023-03-06T21:12:41.398Z,11.70
2023-03-06T21:15:30.891Z,14.10
2023-03-06T21:18:22.935Z,15.50
2023-03-06T21:21:26.712Z,14.30
2023-03-06T21:24:48.343Z,14.50
2023-03-06T21:28:20.027Z,15.50
2023-03-06T21:31:19.852Z,18.20
2023-03-06T21:34:48.712Z,14.50
2023-03-06T21:38:13.631Z,16.50
2023-03-06T21:41:02.533Z,19.80
2023-03-06T21:44:47.690Z,23.60
2023-03-06T21:48:19.670Z,20.70
2023-03-06T21:52:11.795Z,20.40
2023-03-06T21:55:33.817Z,19.30
2023-03-06T21:59:44.338Z,14.30
2023-03-06T22:03:02.794Z,14.60
2023-03-06T22:06:10.407Z,15.50
2023-03-06T22:09:57.917Z,14.40
2023-03-06T22:12:47.436Z,15.10
2023-03-06T22:15:56.412Z,14.80
2023-03-06T22:18:33.764Z,14.00
2023-03-06T22:22:12.580Z,14.40
2023-03-06T22:25:36.141Z,14.40
2023-03-06T22:28:46.841Z,15.50
2023-03-06T22:34:23.078Z,15.50
2023-03-06T22:36:58.633Z,14.10
2023-03-06T22:39:30.231Z,14.40
2023-03-06T22:42:18.772Z,18.20
2023-03-06T22:45:18.366Z,13.40
2023-03-06T22:48:36.165Z,15.20
2023-03-06T22:52:23.173Z,13.60
2023-03-06T22:55:33.867Z,12.40
2023-03-06T22:58:43.959Z,15.40
2023-03-06T23:01:22.760Z,12.40
2023-03-06T23:04:17.571Z,13.50
2023-03-06T23:07:07.951Z,13.00
2023-03-06T23:10:18.192Z,13.30
2023-03-06T23:13:25.710Z,12.70
2023-03-06T23:16:33.853Z,20.70
2023-03-06T23:20:10.195Z,20.20
2023-03-06T23:23:15.912Z,13.00
2023-03-06T23:26:24.011Z,14.70
2023-03-06T23:29:12.487Z,14.60
2023-03-06T23:32:39.880Z,14.00
2023-03-06T23:35:09.569Z,12.40
2023-03-06T23:38:31.613Z,13.80
2023-03-06T23:41:43.091Z,15.60
2023-03-06T23:44:56.959Z,14.90
2023-03-06T23:47:51.744Z,12.10
2023-03-06T23:51:29.765Z,14.60
2023-03-06T23:54:32.488Z,13.10
2023-03-06T23:57:22.965Z,11.90
